createdAt,value
2022-10-02T00:01:50.534Z,8.79
2022-10-02T00:04:55.394Z,8.76
2022-10-02T00:07:49.929Z,8.74
2022-10-02T00:10:45.771Z,8.73
2022-10-02T00:13:41.264Z,8.74
2022-10-02T00:16:36.707Z,8.76
2022-10-02T00:19:22.198Z,8.80
2022-10-02T00:22:45.956Z,8.79
2022-10-02T00:25:52.863Z,8.80
2022-10-02T00:29:03.994Z,8.83
2022-10-02T00:32:16.633Z,8.86
2022-10-02T00:35:17.769Z,8.89
2022-10-02T00:38:27.621Z,8.87
2022-10-02T00:41:49.801Z,8.88
2022-10-02T00:44:51.519Z,8.93
2022-10-02T00:47:46.921Z,8.94
2022-10-02T00:50:44.462Z,8.94
2022-10-02T00:53:48.867Z,8.92
2022-10-02T00:56:58.428Z,8.92
2022-10-02T00:59:54.673Z,8.92
2022-10-02T01:02:59.954Z,8.89
2022-10-02T01:05:45.928Z,8.93
2022-10-02T01:08:32.494Z,8.91
2022-10-02T01:11:19.469Z,8.90
2022-10-02T01:14:05.015Z,8.87
2022-10-02T01:16:51.075Z,8.80
2022-10-02T01:19:39.198Z,8.81
2022-10-02T01:22:46.565Z,8.82
2022-10-02T01:25:31.902Z,8.81
2022-10-02T01:28:18.203Z,8.81
2022-10-02T01:31:14.686Z,8.78
2022-10-02T01:34:00.807Z,8.77
2022-10-02T01:36:46.021Z,8.74
2022-10-02T01:39:31.800Z,8.71
2022-10-02T01:42:17.490Z,8.66
2022-10-02T01:45:05.665Z,8.64
2022-10-02T01:48:20.823Z,8.61
2022-10-02T01:51:09.118Z,8.57
2022-10-02T01:54:18.145Z,8.57
2022-10-02T01:57:09.304Z,8.56
2022-10-02T02:00:07.884Z,8.56
2022-10-02T02:03:14.289Z,8.61
2022-10-02T02:06:21.508Z,8.65
2022-10-02T02:09:15.386Z,8.73
2022-10-02T02:12:12.686Z,8.77
2022-10-02T02:15:04.592Z,8.83
2022-10-02T02:17:57.573Z,8.87
2022-10-02T02:20:47.350Z,8.90
2022-10-02T02:23:37.309Z,8.90
2022-10-02T02:26:24.752Z,8.89
2022-10-02T02:29:12.784Z,8.86
2022-10-02T02:32:02.187Z,8.86
2022-10-02T02:35:02.273Z,8.82
2022-10-02T02:37:50.119Z,8.79
2022-10-02T02:40:40.040Z,8.76
2022-10-02T02:43:34.182Z,8.71
2022-10-02T02:46:34.062Z,8.70
2022-10-02T02:49:20.104Z,8.66
2022-10-02T02:52:10.486Z,8.63
2022-10-02T02:55:18.661Z,8.58
2022-10-02T02:58:27.447Z,8.56
2022-10-02T03:01:13.014Z,8.53
2022-10-02T03:03:58.481Z,8.49
2022-10-02T03:06:47.413Z,8.44
2022-10-02T03:09:33.638Z,8.39
2022-10-02T03:12:33.381Z,8.28
2022-10-02T03:15:30.147Z,8.23
2022-10-02T03:18:38.982Z,8.17
2022-10-02T03:21:29.481Z,8.08
2022-10-02T03:24:22.296Z,8.01
2022-10-02T03:27:34.967Z,7.95
2022-10-02T03:30:22.101Z,8.02
2022-10-02T03:33:10.551Z,8.15
2022-10-02T03:35:56.593Z,8.36
2022-10-02T03:38:42.927Z,8.47
2022-10-02T03:41:28.404Z,8.56
2022-10-02T03:44:13.652Z,8.63
2022-10-02T03:46:59.080Z,8.65
2022-10-02T03:49:44.599Z,8.64
2022-10-02T03:52:31.821Z,8.63
2022-10-02T03:55:35.130Z,8.60
2022-10-02T03:58:21.887Z,8.57
2022-10-02T04:01:13.366Z,8.54
2022-10-02T04:04:20.210Z,8.54
2022-10-02T04:07:12.042Z,8.53
2022-10-02T04:10:14.247Z,8.52
2022-10-02T04:13:08.082Z,8.51
2022-10-02T04:16:21.037Z,8.51
2022-10-02T04:19:22.553Z,8.53
2022-10-02T04:22:22.487Z,8.54
2022-10-02T04:25:10.818Z,8.56
2022-10-02T04:28:05.253Z,8.56
2022-10-02T04:30:53.568Z,8.54
2022-10-02T04:33:38.961Z,8.53
2022-10-02T04:36:43.096Z,8.52
2022-10-02T04:39:32.011Z,8.50
2022-10-02T04:42:29.110Z,8.47
2022-10-02T04:45:45.715Z,8.44
2022-10-02T04:48:46.274Z,8.44
2022-10-02T04:51:50.042Z,8.43
2022-10-02T04:55:00.458Z,8.43
2022-10-02T04:58:15.372Z,8.41
2022-10-02T05:01:03.826Z,8.40
2022-10-02T05:04:08.245Z,8.38
2022-10-02T05:07:35.291Z,8.37
2022-10-02T05:10:46.400Z,8.39
2022-10-02T05:13:32.221Z,8.55
2022-10-02T05:16:40.911Z,8.63
2022-10-02T05:19:54.665Z,8.69
2022-10-02T05:22:52.148Z,8.71
2022-10-02T05:25:46.663Z,8.74
2022-10-02T05:29:00.414Z,8.75
2022-10-02T05:32:05.954Z,8.79
2022-10-02T05:35:31.992Z,8.83
2022-10-02T05:38:32.600Z,8.89
2022-10-02T05:41:17.693Z,8.91
2022-10-02T05:44:26.630Z,8.94
2022-10-02T05:47:15.123Z,8.96
2022-10-02T05:50:10.002Z,9.01
2022-10-02T05:53:23.340Z,9.03
2022-10-02T05:56:25.783Z,9.07
2022-10-02T05:59:19.917Z,9.20
2022-10-02T06:02:19.412Z,9.28
2022-10-02T06:05:20.956Z,9.37
2022-10-02T06:08:12.571Z,9.51
2022-10-02T06:11:05.215Z,9.68
2022-10-02T06:14:15.999Z,9.84
2022-10-02T06:17:07.818Z,9.93
2022-10-02T06:20:28.098Z,10.04
2022-10-02T06:23:20.869Z,10.07
2022-10-02T06:26:47.684Z,10.08
2022-10-02T06:29:48.768Z,10.09
2022-10-02T06:32:42.300Z,10.18
2022-10-02T06:35:59.076Z,10.27
2022-10-02T06:39:09.041Z,10.36
2022-10-02T06:42:24.026Z,10.45
2022-10-02T06:45:16.091Z,10.52
2022-10-02T06:48:26.489Z,10.57
2022-10-02T06:52:05.973Z,10.60
2022-10-02T06:55:28.766Z,10.64
2022-10-02T06:58:45.599Z,10.70
2022-10-02T07:02:03.157Z,10.74
2022-10-02T07:04:51.737Z,10.79
2022-10-02T07:07:46.040Z,10.84
2022-10-02T07:10:44.149Z,10.89
2022-10-02T07:13:34.340Z,10.95
2022-10-02T07:16:27.528Z,11.00
2022-10-02T07:19:19.359Z,11.03
2022-10-02T07:22:46.112Z,11.08
2022-10-02T07:25:50.589Z,11.13
2022-10-02T07:28:45.365Z,11.16
2022-10-02T07:31:46.252Z,11.18
2022-10-02T07:35:03.709Z,11.19
2022-10-02T07:37:58.119Z,11.21
2022-10-02T07:40:47.349Z,11.21
2022-10-02T07:43:58.503Z,11.23
2022-10-02T07:47:37.609Z,11.26
2022-10-02T07:50:44.947Z,11.27
2022-10-02T07:54:12.568Z,11.30
2022-10-02T07:57:11.211Z,11.35
2022-10-02T08:00:06.077Z,11.39
2022-10-02T08:03:06.486Z,11.41
2022-10-02T08:05:55.217Z,11.46
2022-10-02T08:08:58.965Z,11.51
2022-10-02T08:12:03.747Z,11.58
2022-10-02T08:14:55.414Z,11.64
2022-10-02T08:17:58.683Z,11.68
2022-10-02T08:20:49.606Z,11.74
2022-10-02T08:23:50.550Z,11.83
2022-10-02T08:26:48.762Z,11.91
2022-10-02T08:29:44.647Z,12.02
2022-10-02T08:32:36.642Z,12.13
2022-10-02T08:35:23.315Z,12.23
2022-10-02T08:38:19.975Z,12.31
2022-10-02T08:41:24.273Z,12.39
2022-10-02T08:44:30.179Z,12.48
2022-10-02T08:47:37.466Z,12.56
2022-10-02T08:50:53.782Z,12.63
2022-10-02T08:54:16.777Z,12.67
2022-10-02T08:57:17.542Z,12.76
2022-10-02T09:00:14.445Z,12.79
2022-10-02T09:03:05.918Z,12.78
2022-10-02T09:06:16.567Z,12.80
2022-10-02T09:09:28.689Z,12.82
2022-10-02T09:12:44.267Z,12.84
2022-10-02T09:15:45.183Z,12.79
2022-10-02T09:18:58.708Z,12.76
2022-10-02T09:22:00.718Z,12.75
2022-10-02T09:25:12.273Z,12.73
2022-10-02T09:28:06.873Z,12.73
2022-10-02T09:30:58.362Z,12.72
2022-10-02T09:34:25.637Z,12.75
2022-10-02T09:37:24.876Z,12.78
2022-10-02T09:40:38.592Z,12.80
2022-10-02T09:43:43.675Z,12.83
2022-10-02T09:46:44.686Z,12.88
2022-10-02T09:50:05.483Z,12.89
2022-10-02T09:52:57.163Z,12.89
2022-10-02T09:56:04.128Z,12.88
2022-10-02T09:59:19.193Z,12.86
2022-10-02T10:02:29.331Z,12.82
2022-10-02T10:05:40.941Z,12.83
2022-10-02T10:08:54.563Z,12.78
2022-10-02T10:12:02.927Z,12.75
2022-10-02T10:15:09.285Z,12.76
2022-10-02T10:18:26.736Z,12.75
2022-10-02T10:21:50.228Z,12.72
2022-10-02T10:24:45.212Z,12.68
2022-10-02T10:28:08.530Z,12.66
2022-10-02T10:31:29.971Z,12.59
2022-10-02T10:34:27.875Z,12.54
2022-10-02T10:37:47.286Z,12.50
2022-10-02T10:40:46.753Z,12.44
2022-10-02T10:43:36.537Z,12.36
2022-10-02T10:46:43.596Z,12.31
2022-10-02T10:49:42.171Z,12.26
2022-10-02T10:52:45.722Z,12.25
2022-10-02T10:55:46.218Z,12.20
2022-10-02T10:58:52.944Z,12.20
2022-10-02T11:02:03.206Z,12.14
2022-10-02T11:04:57.667Z,12.12
2022-10-02T11:07:58.722Z,12.11
2022-10-02T11:10:46.898Z,12.11
2022-10-02T11:13:57.614Z,12.07
2022-10-02T11:16:55.533Z,12.02
2022-10-02T11:19:51.818Z,12.03
2022-10-02T11:23:16.599Z,12.00
2022-10-02T11:26:22.187Z,11.94
2022-10-02T11:29:34.233Z,11.93
2022-10-02T11:32:45.373Z,11.88
2022-10-02T11:35:42.189Z,11.86
2022-10-02T11:38:40.020Z,11.90
2022-10-02T11:41:50.883Z,11.92
2022-10-02T11:44:48.300Z,11.91
2022-10-02T11:47:55.145Z,11.94
2022-10-02T11:50:59.442Z,11.99
2022-10-02T11:53:48.003Z,12.04
2022-10-02T11:57:06.149Z,12.11
2022-10-02T12:00:29.964Z,12.17
2022-10-02T12:03:55.756Z,12.13
2022-10-02T12:07:00.798Z,12.10
2022-10-02T12:10:31.363Z,12.12
2022-10-02T12:13:26.112Z,12.14
2022-10-02T12:16:37.998Z,12.16
2022-10-02T12:20:02.241Z,12.19
2022-10-02T12:23:19.766Z,12.18
2022-10-02T12:27:09.568Z,12.17
2022-10-02T12:30:11.446Z,12.15
2022-10-02T12:33:23.445Z,12.10
2022-10-02T12:36:34.400Z,12.07
2022-10-02T12:39:59.595Z,12.08
2022-10-02T12:42:51.408Z,12.11
2022-10-02T12:45:58.768Z,12.09
2022-10-02T12:48:57.219Z,12.10
2022-10-02T12:52:04.135Z,12.09
2022-10-02T12:55:02.053Z,12.08
2022-10-02T12:58:17.225Z,12.09
2022-10-02T13:01:04.177Z,12.08
2022-10-02T13:04:28.106Z,12.03
2022-10-02T13:07:44.660Z,11.97
2022-10-02T13:11:03.440Z,11.95
2022-10-02T13:13:49.357Z,11.94
2022-10-02T13:16:46.987Z,11.93
2022-10-02T13:20:04.943Z,11.92
2022-10-02T13:23:07.977Z,11.86
2022-10-02T13:26:02.749Z,11.85
2022-10-02T13:29:04.712Z,11.80
2022-10-02T13:32:14.763Z,11.78
2022-10-02T13:35:28.087Z,11.75
2022-10-02T13:38:28.689Z,11.71
2022-10-02T13:41:32.272Z,11.70
2022-10-02T13:44:22.243Z,11.68
2022-10-02T13:47:15.017Z,11.67
2022-10-02T13:50:08.664Z,11.68
2022-10-02T13:53:12.698Z,11.70
2022-10-02T13:56:20.880Z,11.75
2022-10-02T13:59:31.572Z,11.82
2022-10-02T14:02:38.808Z,11.86
2022-10-02T14:05:38.292Z,11.91
2022-10-02T14:08:52.291Z,11.92
2022-10-02T14:11:37.748Z,11.90
2022-10-02T14:14:35.912Z,11.90
2022-10-02T14:17:58.543Z,11.88
2022-10-02T14:21:03.994Z,11.91
2022-10-02T14:24:21.747Z,11.93
2022-10-02T14:27:24.406Z,11.93
2022-10-02T14:30:20.090Z,11.90
2022-10-02T14:33:39.735Z,11.91
2022-10-02T14:36:34.280Z,11.94
2022-10-02T14:39:35.967Z,11.96
2022-10-02T14:42:49.327Z,11.97
2022-10-02T14:45:47.345Z,11.97
2022-10-02T14:48:57.839Z,11.95
2022-10-02T14:52:04.866Z,11.93
2022-10-02T14:55:16.230Z,11.92
2022-10-02T14:58:35.850Z,11.90
2022-10-02T15:01:22.864Z,11.88
2022-10-02T15:04:41.613Z,11.85
2022-10-02T15:07:28.813Z,11.83
2022-10-02T15:10:21.935Z,11.80
2022-10-02T15:13:14.375Z,11.80
2022-10-02T15:16:31.170Z,11.78
2022-10-02T15:19:55.848Z,11.73
2022-10-02T15:23:01.686Z,11.74
2022-10-02T15:26:10.495Z,11.72
2022-10-02T15:29:02.031Z,11.71
2022-10-02T15:32:06.842Z,11.69
2022-10-02T15:35:23.606Z,11.69
2022-10-02T15:38:30.477Z,11.66
2022-10-02T15:41:38.115Z,11.66
2022-10-02T15:44:57.981Z,11.63
2022-10-02T15:47:48.569Z,11.63
2022-10-02T15:50:34.343Z,11.62
2022-10-02T15:53:36.863Z,11.61
2022-10-02T15:56:30.975Z,11.60
2022-10-02T15:59:45.349Z,11.59
2022-10-02T16:03:08.279Z,11.58
2022-10-02T16:06:22.916Z,11.56
2022-10-02T16:09:20.144Z,11.56
2022-10-02T16:12:35.685Z,11.54
2022-10-02T16:15:38.757Z,11.54
2022-10-02T16:18:39.787Z,11.52
2022-10-02T16:21:31.294Z,11.51
2022-10-02T16:24:46.376Z,11.51
2022-10-02T16:28:00.614Z,11.47
2022-10-02T16:30:49.004Z,11.45
2022-10-02T16:34:01.327Z,11.41
2022-10-02T16:37:06.265Z,11.41
2022-10-02T16:39:55.095Z,11.35
2022-10-02T16:42:53.450Z,11.33
2022-10-02T16:45:59.307Z,11.26
2022-10-02T16:49:09.758Z,11.20
2022-10-02T16:52:10.705Z,11.16
2022-10-02T16:55:05.584Z,11.13
2022-10-02T16:58:04.887Z,11.07
2022-10-02T17:00:54.567Z,11.11
2022-10-02T17:04:23.101Z,11.01
2022-10-02T17:07:31.330Z,10.95
2022-10-02T17:10:42.994Z,10.91
2022-10-02T17:13:37.453Z,10.88
2022-10-02T17:16:32.954Z,10.85
2022-10-02T17:19:35.260Z,10.81
2022-10-02T17:22:28.756Z,10.79
2022-10-02T17:25:33.062Z,10.78
2022-10-02T17:28:45.043Z,10.71
2022-10-02T17:31:36.771Z,10.66
2022-10-02T17:34:26.661Z,10.59
2022-10-02T17:37:18.433Z,10.51
2022-10-02T17:40:37.007Z,10.47
2022-10-02T17:43:58.420Z,10.42
2022-10-02T17:47:02.467Z,10.37
2022-10-02T17:50:24.995Z,10.35
2022-10-02T17:53:47.734Z,10.29
2022-10-02T17:56:50.018Z,10.24
2022-10-02T17:59:38.245Z,10.21
2022-10-02T18:02:38.415Z,10.19
2022-10-02T18:05:26.818Z,10.19
2022-10-02T18:08:30.606Z,10.21
2022-10-02T18:11:41.267Z,10.25
2022-10-02T18:14:36.119Z,10.27
2022-10-02T18:17:55.838Z,10.26
2022-10-02T18:20:57.474Z,10.24
2022-10-02T18:23:57.891Z,10.22
2022-10-02T18:27:09.565Z,10.19
2022-10-02T18:30:12.156Z,10.17
2022-10-02T18:33:25.634Z,10.14
2022-10-02T18:36:38.305Z,10.10
2022-10-02T18:39:29.927Z,10.08
2022-10-02T18:42:43.120Z,10.06
2022-10-02T18:45:51.040Z,10.03
2022-10-02T18:49:00.678Z,10.02
2022-10-02T18:51:46.351Z,9.99
2022-10-02T18:54:43.615Z,9.97
2022-10-02T18:57:51.790Z,9.96
2022-10-02T19:01:15.964Z,9.98
2022-10-02T19:04:20.311Z,9.99
2022-10-02T19:07:19.488Z,10.02
2022-10-02T19:10:28.932Z,10.06
2022-10-02T19:13:22.443Z,10.10
2022-10-02T19:16:19.375Z,10.14
2022-10-02T19:19:24.435Z,10.16
2022-10-02T19:22:20.419Z,10.18
2022-10-02T19:25:19.505Z,10.21
2022-10-02T19:28:05.631Z,10.24
2022-10-02T19:30:55.923Z,10.26
2022-10-02T19:33:51.206Z,10.27
2022-10-02T19:36:42.876Z,10.28
2022-10-02T19:39:37.137Z,10.32
2022-10-02T19:42:29.909Z,10.37
2022-10-02T19:45:26.913Z,10.41
2022-10-02T19:48:17.920Z,10.43
2022-10-02T19:51:07.391Z,10.45
2022-10-02T19:54:06.249Z,10.46
2022-10-02T19:57:01.886Z,10.48
2022-10-02T19:59:52.256Z,10.49
2022-10-02T20:02:44.925Z,10.50
2022-10-02T20:05:34.354Z,10.50
2022-10-02T20:08:35.855Z,10.49
2022-10-02T20:11:29.069Z,10.50
2022-10-02T20:14:31.323Z,10.48
2022-10-02T20:17:17.888Z,10.47
2022-10-02T20:20:07.971Z,10.45
2022-10-02T20:22:58.814Z,10.44
2022-10-02T20:25:53.168Z,10.41
2022-10-02T20:28:48.170Z,10.39
2022-10-02T20:31:40.592Z,10.38
2022-10-02T20:34:37.916Z,10.36
2022-10-02T20:37:29.566Z,10.37
2022-10-02T20:40:20.520Z,10.38
2022-10-02T20:43:23.133Z,10.36
2022-10-02T20:46:24.800Z,10.38
2022-10-02T20:49:13.042Z,10.37
2022-10-02T20:52:24.161Z,10.39
2022-10-02T20:55:19.216Z,10.40
2022-10-02T20:58:26.438Z,10.39
2022-10-02T21:01:19.683Z,10.39
2022-10-02T21:04:26.597Z,10.41
2022-10-02T21:07:24.507Z,10.42
2022-10-02T21:10:39.342Z,10.42
2022-10-02T21:13:53.487Z,10.41
2022-10-02T21:16:51.519Z,10.40
2022-10-02T21:20:03.263Z,10.38
2022-10-02T21:22:57.774Z,10.34
2022-10-02T21:25:50.065Z,10.31
2022-10-02T21:28:57.065Z,10.26
2022-10-02T21:32:20.402Z,10.22
2022-10-02T21:35:40.224Z,10.18
2022-10-02T21:38:32.267Z,10.15
2022-10-02T21:41:36.717Z,10.13
2022-10-02T21:45:03.614Z,10.14
2022-10-02T21:48:11.512Z,10.15
2022-10-02T21:51:21.778Z,10.19
2022-10-02T21:54:13.240Z,10.23
2022-10-02T21:57:16.743Z,10.27
2022-10-02T22:00:17.104Z,10.33
2022-10-02T22:03:38.302Z,10.34
2022-10-02T22:06:39.911Z,10.35
2022-10-02T22:09:41.264Z,10.36
2022-10-02T22:12:42.023Z,10.36
2022-10-02T22:15:50.306Z,10.35
2022-10-02T22:18:44.992Z,10.37
2022-10-02T22:21:57.064Z,10.37
2022-10-02T22:25:00.943Z,10.37
2022-10-02T22:28:01.565Z,10.37
2022-10-02T22:30:56.187Z,10.37
2022-10-02T22:34:03.033Z,10.34
2022-10-02T22:37:17.842Z,10.29
2022-10-02T22:40:08.354Z,10.26
2022-10-02T22:43:01.393Z,10.23
2022-10-02T22:46:02.441Z,10.21
2022-10-02T22:49:04.809Z,10.18
2022-10-02T22:52:03.165Z,10.14
2022-10-02T22:55:00.802Z,10.12
2022-10-02T22:58:25.312Z,10.07
2022-10-02T23:01:33.188Z,10.06
2022-10-02T23:04:30.943Z,10.06
2022-10-02T23:07:26.901Z,10.05
2022-10-02T23:10:31.110Z,10.04
2022-10-02T23:13:29.478Z,10.05
2022-10-02T23:16:35.208Z,10.05
2022-10-02T23:19:31.999Z,10.04
2022-10-02T23:22:35.290Z,10.03
2022-10-02T23:25:41.681Z,10.03
2022-10-02T23:28:34.267Z,10.01
2022-10-02T23:31:30.473Z,9.99
2022-10-02T23:34:29.734Z,9.94
2022-10-02T23:37:33.394Z,9.91
2022-10-02T23:41:14.264Z,9.89
2022-10-02T23:44:27.887Z,9.84
2022-10-02T23:47:31.150Z,9.82
2022-10-02T23:50:54.774Z,9.81
2022-10-02T23:54:14.914Z,9.81
2022-10-02T23:57:11.790Z,9.79
